sensor_id;sensor_type;location;lat;lon;timestamp;temperature;humidity
18173;DHT22;9211;48.818;9.312;2022-10-17T00:01:08;13.60;99.90
18173;DHT22;9211;48.818;9.312;2022-10-17T00:03:36;13.60;99.90
18173;DHT22;9211;48.818;9.312;2022-10-17T00:06:05;13.50;99.90
18173;DHT22;9211;48.818;9.312;2022-10-17T00:08:34;13.50;99.90
18173;DHT22;9211;48.818;9.312;2022-10-17T00:11:05;13.50;99.90
18173;DHT22;9211;48.818;9.312;2022-10-17T00:13:33;13.50;99.90
18173;DHT22;9211;48.818;9.312;2022-10-17T00:16:00;13.50;99.90
18173;DHT22;9211;48.818;9.312;2022-10-17T00:18:27;13.40;99.90
18173;DHT22;9211;48.818;9.312;2022-10-17T00:20:54;13.40;99.90
18173;DHT22;9211;48.818;9.312;2022-10-17T00:23:21;13.30;99.90
18173;DHT22;9211;48.818;9.312;2022-10-17T00:25:58;13.30;99.90
18173;DHT22;9211;48.818;9.312;2022-10-17T00:28:25;13.30;99.90
18173;DHT22;9211;48.818;9.312;2022-10-17T00:30:56;13.20;99.90
18173;DHT22;9211;48.818;9.312;2022-10-17T00:33:23;13.20;99.90
18173;DHT22;9211;48.818;9.312;2022-10-17T00:35:50;13.20;99.90
18173;DHT22;9211;48.818;9.312;2022-10-17T00:38:17;13.20;99.90
18173;DHT22;9211;48.818;9.312;2022-10-17T00:40:44;13.20;99.90
18173;DHT22;9211;48.818;9.312;2022-10-17T00:43:16;13.10;99.90
18173;DHT22;9211;48.818;9.312;2022-10-17T00:45:43;13.10;99.90
18173;DHT22;9211;48.818;9.312;2022-10-17T00:48:12;13.00;99.90
18173;DHT22;9211;48.818;9.312;2022-10-17T00:50:43;13.00;99.90
18173;DHT22;9211;48.818;9.312;2022-10-17T00:53:11;13.00;99.90
18173;DHT22;9211;48.818;9.312;2022-10-17T00:55:43;13.10;99.90
18173;DHT22;9211;48.818;9.312;2022-10-17T00:58:10;13.10;99.90
18173;DHT22;9211;48.818;9.312;2022-10-17T01:00:40;13.00;99.90
18173;DHT22;9211;48.818;9.312;2022-10-17T01:03:07;13.00;99.90
18173;DHT22;9211;48.818;9.312;2022-10-17T01:05:34;13.00;99.90
18173;DHT22;9211;48.818;9.312;2022-10-17T01:08:03;12.90;99.90
18173;DHT22;9211;48.818;9.312;2022-10-17T01:10:33;12.90;99.90
18173;DHT22;9211;48.818;9.312;2022-10-17T01:13:09;12.90;99.90
18173;DHT22;9211;48.818;9.312;2022-10-17T01:15:51;12.90;99.90
18173;DHT22;9211;48.818;9.312;2022-10-17T01:18:31;12.80;99.90
18173;DHT22;9211;48.818;9.312;2022-10-17T01:24:32;12.70;99.90
18173;DHT22;9211;48.818;9.312;2022-10-17T01:27:50;12.70;99.90
18173;DHT22;9211;48.818;9.312;2022-10-17T01:30:41;12.70;99.90
18173;DHT22;9211;48.818;9.312;2022-10-17T01:33:11;12.60;99.90
18173;DHT22;9211;48.818;9.312;2022-10-17T01:35:42;12.60;99.90
18173;DHT22;9211;48.818;9.312;2022-10-17T01:38:18;12.50;99.90
18173;DHT22;9211;48.818;9.312;2022-10-17T01:40:49;12.60;99.90
18173;DHT22;9211;48.818;9.312;2022-10-17T01:43:23;12.60;99.90
18173;DHT22;9211;48.818;9.312;2022-10-17T01:45:57;12.60;99.90
18173;DHT22;9211;48.818;9.312;2022-10-17T01:48:31;12.60;99.90
18173;DHT22;9211;48.818;9.312;2022-10-17T01:51:06;12.60;99.90
18173;DHT22;9211;48.818;9.312;2022-10-17T01:53:38;12.60;99.90
18173;DHT22;9211;48.818;9.312;2022-10-17T01:56:08;12.60;99.90
18173;DHT22;9211;48.818;9.312;2022-10-17T01:58:40;12.60;99.90
18173;DHT22;9211;48.818;9.312;2022-10-17T02:03:41;12.40;99.90
18173;DHT22;9211;48.818;9.312;2022-10-17T02:06:09;12.50;99.90
18173;DHT22;9211;48.818;9.312;2022-10-17T02:08:41;12.50;99.90
18173;DHT22;9211;48.818;9.312;2022-10-17T02:11:12;12.50;99.90
18173;DHT22;9211;48.818;9.312;2022-10-17T02:16:34;12.50;99.90
18173;DHT22;9211;48.818;9.312;2022-10-17T02:19:29;12.40;99.90
18173;DHT22;9211;48.818;9.312;2022-10-17T02:22:09;12.40;99.90
18173;DHT22;9211;48.818;9.312;2022-10-17T02:24:46;12.30;99.90
18173;DHT22;9211;48.818;9.312;2022-10-17T02:27:19;12.30;99.90
18173;DHT22;9211;48.818;9.312;2022-10-17T02:29:54;12.30;99.90
18173;DHT22;9211;48.818;9.312;2022-10-17T02:32:25;12.20;99.90
18173;DHT22;9211;48.818;9.312;2022-10-17T02:35:01;12.20;99.90
18173;DHT22;9211;48.818;9.312;2022-10-17T02:37:30;12.30;99.90
18173;DHT22;9211;48.818;9.312;2022-10-17T02:39:59;12.30;99.90
18173;DHT22;9211;48.818;9.312;2022-10-17T02:42:27;12.30;99.90
18173;DHT22;9211;48.818;9.312;2022-10-17T02:44:58;12.20;99.90
18173;DHT22;9211;48.818;9.312;2022-10-17T02:47:30;12.20;99.90
18173;DHT22;9211;48.818;9.312;2022-10-17T02:49:57;12.20;99.90
18173;DHT22;9211;48.818;9.312;2022-10-17T02:52:31;12.20;99.90
18173;DHT22;9211;48.818;9.312;2022-10-17T02:55:05;12.20;99.90
18173;DHT22;9211;48.818;9.312;2022-10-17T02:57:37;12.20;99.90
18173;DHT22;9211;48.818;9.312;2022-10-17T03:00:08;12.20;99.90
18173;DHT22;9211;48.818;9.312;2022-10-17T03:02:42;12.20;99.90
18173;DHT22;9211;48.818;9.312;2022-10-17T03:05:11;12.10;99.90
18173;DHT22;9211;48.818;9.312;2022-10-17T03:07:41;12.10;99.90
18173;DHT22;9211;48.818;9.312;2022-10-17T03:10:08;12.10;99.90
18173;DHT22;9211;48.818;9.312;2022-10-17T03:12:36;12.10;99.90
18173;DHT22;9211;48.818;9.312;2022-10-17T03:15:03;12.10;99.90
18173;DHT22;9211;48.818;9.312;2022-10-17T03:17:31;12.10;99.90
18173;DHT22;9211;48.818;9.312;2022-10-17T03:19:58;12.10;99.90
18173;DHT22;9211;48.818;9.312;2022-10-17T03:22:25;12.00;99.90
18173;DHT22;9211;48.818;9.312;2022-10-17T03:24:53;12.00;99.90
18173;DHT22;9211;48.818;9.312;2022-10-17T03:27:20;12.00;99.90
18173;DHT22;9211;48.818;9.312;2022-10-17T03:29:48;12.00;99.90
18173;DHT22;9211;48.818;9.312;2022-10-17T03:32:15;12.00;99.90
18173;DHT22;9211;48.818;9.312;2022-10-17T03:34:42;12.00;99.90
18173;DHT22;9211;48.818;9.312;2022-10-17T03:37:09;11.90;99.90
18173;DHT22;9211;48.818;9.312;2022-10-17T03:39:38;12.00;99.90
18173;DHT22;9211;48.818;9.312;2022-10-17T03:42:06;12.00;99.90
18173;DHT22;9211;48.818;9.312;2022-10-17T03:44:33;12.00;99.90
18173;DHT22;9211;48.818;9.312;2022-10-17T03:47:00;12.00;99.90
18173;DHT22;9211;48.818;9.312;2022-10-17T03:49:27;12.00;99.90
18173;DHT22;9211;48.818;9.312;2022-10-17T03:51:54;12.00;99.90
18173;DHT22;9211;48.818;9.312;2022-10-17T03:54:21;12.00;99.90
18173;DHT22;9211;48.818;9.312;2022-10-17T03:56:49;11.90;99.90
18173;DHT22;9211;48.818;9.312;2022-10-17T03:59:19;11.90;99.90
18173;DHT22;9211;48.818;9.312;2022-10-17T04:01:55;11.90;99.90
18173;DHT22;9211;48.818;9.312;2022-10-17T04:04:21;11.90;99.90
18173;DHT22;9211;48.818;9.312;2022-10-17T04:06:49;12.00;99.90
18173;DHT22;9211;48.818;9.312;2022-10-17T04:09:16;12.00;99.90
18173;DHT22;9211;48.818;9.312;2022-10-17T04:12:06;11.90;99.90
18173;DHT22;9211;48.818;9.312;2022-10-17T04:14:37;11.90;99.90
18173;DHT22;9211;48.818;9.312;2022-10-17T04:17:04;11.90;99.90
18173;DHT22;9211;48.818;9.312;2022-10-17T04:19:32;11.90;99.90
18173;DHT22;9211;48.818;9.312;2022-10-17T04:21:59;11.90;99.90
18173;DHT22;9211;48.818;9.312;2022-10-17T04:24:28;11.90;99.90
18173;DHT22;9211;48.818;9.312;2022-10-17T04:27:02;11.90;99.90
18173;DHT22;9211;48.818;9.312;2022-10-17T04:29:32;11.90;99.90
18173;DHT22;9211;48.818;9.312;2022-10-17T04:32:26;11.90;99.90
18173;DHT22;9211;48.818;9.312;2022-10-17T04:34:58;11.90;99.90
18173;DHT22;9211;48.818;9.312;2022-10-17T04:37:28;11.90;99.90
18173;DHT22;9211;48.818;9.312;2022-10-17T04:39:56;11.90;99.90
18173;DHT22;9211;48.818;9.312;2022-10-17T04:42:23;11.90;99.90
18173;DHT22;9211;48.818;9.312;2022-10-17T04:44:52;11.90;99.90
18173;DHT22;9211;48.818;9.312;2022-10-17T04:47:22;11.90;99.90
18173;DHT22;9211;48.818;9.312;2022-10-17T04:49:51;11.90;99.90
18173;DHT22;9211;48.818;9.312;2022-10-17T04:52:20;11.80;99.90
18173;DHT22;9211;48.818;9.312;2022-10-17T04:54:48;11.80;99.90
18173;DHT22;9211;48.818;9.312;2022-10-17T04:57:16;11.80;99.90
18173;DHT22;9211;48.818;9.312;2022-10-17T05:00:00;11.80;99.90
18173;DHT22;9211;48.818;9.312;2022-10-17T05:02:47;11.90;99.90
18173;DHT22;9211;48.818;9.312;2022-10-17T05:05:16;11.90;99.90
18173;DHT22;9211;48.818;9.312;2022-10-17T05:07:45;11.90;99.90
18173;DHT22;9211;48.818;9.312;2022-10-17T05:10:17;11.90;99.90
18173;DHT22;9211;48.818;9.312;2022-10-17T05:12:46;11.90;99.90
18173;DHT22;9211;48.818;9.312;2022-10-17T05:15:15;11.90;99.90
18173;DHT22;9211;48.818;9.312;2022-10-17T05:17:42;11.90;99.90
18173;DHT22;9211;48.818;9.312;2022-10-17T05:20:11;11.70;99.90
18173;DHT22;9211;48.818;9.312;2022-10-17T05:22:40;11.80;99.90
18173;DHT22;9211;48.818;9.312;2022-10-17T05:25:08;11.90;99.90
18173;DHT22;9211;48.818;9.312;2022-10-17T05:27:35;11.80;99.90
18173;DHT22;9211;48.818;9.312;2022-10-17T05:30:04;11.80;99.90
18173;DHT22;9211;48.818;9.312;2022-10-17T05:32:33;11.80;99.90
18173;DHT22;9211;48.818;9.312;2022-10-17T05:35:00;11.80;99.90
18173;DHT22;9211;48.818;9.312;2022-10-17T05:37:29;11.80;99.90
18173;DHT22;9211;48.818;9.312;2022-10-17T05:39:58;11.80;99.90
18173;DHT22;9211;48.818;9.312;2022-10-17T05:42:25;11.80;99.90
18173;DHT22;9211;48.818;9.312;2022-10-17T05:44:52;11.80;99.90
18173;DHT22;9211;48.818;9.312;2022-10-17T05:47:20;11.90;99.90
18173;DHT22;9211;48.818;9.312;2022-10-17T05:49:47;11.90;99.90
18173;DHT22;9211;48.818;9.312;2022-10-17T05:52:15;11.90;99.90
18173;DHT22;9211;48.818;9.312;2022-10-17T05:55:08;11.90;99.90
18173;DHT22;9211;48.818;9.312;2022-10-17T05:57:35;11.90;99.90
18173;DHT22;9211;48.818;9.312;2022-10-17T06:00:06;11.90;99.90
18173;DHT22;9211;48.818;9.312;2022-10-17T06:02:44;11.90;99.90
18173;DHT22;9211;48.818;9.312;2022-10-17T06:05:13;11.90;99.90
18173;DHT22;9211;48.818;9.312;2022-10-17T06:07:40;11.90;99.90
18173;DHT22;9211;48.818;9.312;2022-10-17T06:10:10;12.00;99.90
18173;DHT22;9211;48.818;9.312;2022-10-17T06:12:40;12.00;99.90
18173;DHT22;9211;48.818;9.312;2022-10-17T06:15:08;12.10;99.90
18173;DHT22;9211;48.818;9.312;2022-10-17T06:17:36;12.10;99.90
18173;DHT22;9211;48.818;9.312;2022-10-17T06:20:05;12.10;99.90
18173;DHT22;9211;48.818;9.312;2022-10-17T06:22:32;12.10;99.90
18173;DHT22;9211;48.818;9.312;2022-10-17T06:25:00;12.20;99.90
18173;DHT22;9211;48.818;9.312;2022-10-17T06:27:29;12.10;99.90
18173;DHT22;9211;48.818;9.312;2022-10-17T06:29:56;12.10;99.90
18173;DHT22;9211;48.818;9.312;2022-10-17T06:32:23;12.20;99.90
18173;DHT22;9211;48.818;9.312;2022-10-17T06:34:50;12.10;99.90
18173;DHT22;9211;48.818;9.312;2022-10-17T06:37:17;12.10;99.90
18173;DHT22;9211;48.818;9.312;2022-10-17T06:39:47;12.20;99.90
18173;DHT22;9211;48.818;9.312;2022-10-17T06:42:18;12.20;99.90
18173;DHT22;9211;48.818;9.312;2022-10-17T06:44:50;12.20;99.90
18173;DHT22;9211;48.818;9.312;2022-10-17T06:47:52;12.20;99.90
18173;DHT22;9211;48.818;9.312;2022-10-17T06:50:39;12.30;99.90
18173;DHT22;9211;48.818;9.312;2022-10-17T06:53:12;12.40;99.90
18173;DHT22;9211;48.818;9.312;2022-10-17T06:55:58;12.40;99.90
18173;DHT22;9211;48.818;9.312;2022-10-17T06:58:43;12.50;99.90
18173;DHT22;9211;48.818;9.312;2022-10-17T07:01:24;12.50;99.90
18173;DHT22;9211;48.818;9.312;2022-10-17T07:03:56;12.60;99.90
18173;DHT22;9211;48.818;9.312;2022-10-17T07:06:23;12.70;99.90
18173;DHT22;9211;48.818;9.312;2022-10-17T07:08:53;12.70;99.90
18173;DHT22;9211;48.818;9.312;2022-10-17T07:11:21;12.80;99.90
18173;DHT22;9211;48.818;9.312;2022-10-17T07:13:51;12.90;99.90
18173;DHT22;9211;48.818;9.312;2022-10-17T07:16:20;12.90;99.90
18173;DHT22;9211;48.818;9.312;2022-10-17T07:18:54;13.00;99.90
18173;DHT22;9211;48.818;9.312;2022-10-17T07:21:21;13.10;99.90
18173;DHT22;9211;48.818;9.312;2022-10-17T07:23:48;13.20;99.90
18173;DHT22;9211;48.818;9.312;2022-10-17T07:26:17;13.20;99.90
18173;DHT22;9211;48.818;9.312;2022-10-17T07:28:51;13.30;99.90
18173;DHT22;9211;48.818;9.312;2022-10-17T07:31:38;13.30;99.90
18173;DHT22;9211;48.818;9.312;2022-10-17T07:34:06;13.40;99.90
18173;DHT22;9211;48.818;9.312;2022-10-17T07:36:33;13.40;99.90
18173;DHT22;9211;48.818;9.312;2022-10-17T07:39:03;13.50;99.90
18173;DHT22;9211;48.818;9.312;2022-10-17T07:41:31;13.50;99.90
18173;DHT22;9211;48.818;9.312;2022-10-17T07:43:58;13.60;99.90
18173;DHT22;9211;48.818;9.312;2022-10-17T07:46:31;13.70;99.90
18173;DHT22;9211;48.818;9.312;2022-10-17T07:48:58;13.80;99.90
18173;DHT22;9211;48.818;9.312;2022-10-17T07:51:27;13.80;99.90
18173;DHT22;9211;48.818;9.312;2022-10-17T07:53:54;13.90;99.90
18173;DHT22;9211;48.818;9.312;2022-10-17T07:56:21;14.00;99.90
18173;DHT22;9211;48.818;9.312;2022-10-17T07:58:49;14.10;99.90
18173;DHT22;9211;48.818;9.312;2022-10-17T08:01:16;14.10;99.90
18173;DHT22;9211;48.818;9.312;2022-10-17T08:03:44;14.20;99.90
18173;DHT22;9211;48.818;9.312;2022-10-17T08:06:13;14.20;99.90
18173;DHT22;9211;48.818;9.312;2022-10-17T08:08:42;14.30;99.90
18173;DHT22;9211;48.818;9.312;2022-10-17T08:11:11;14.30;99.90
18173;DHT22;9211;48.818;9.312;2022-10-17T08:13:38;14.30;99.90
18173;DHT22;9211;48.818;9.312;2022-10-17T08:16:07;14.30;99.90
18173;DHT22;9211;48.818;9.312;2022-10-17T08:18:35;14.40;99.90
18173;DHT22;9211;48.818;9.312;2022-10-17T08:21:04;14.40;99.90
18173;DHT22;9211;48.818;9.312;2022-10-17T08:23:33;14.40;99.90
18173;DHT22;9211;48.818;9.312;2022-10-17T08:26:03;14.50;99.90
18173;DHT22;9211;48.818;9.312;2022-10-17T08:28:33;14.50;99.90
18173;DHT22;9211;48.818;9.312;2022-10-17T08:31:02;14.60;99.90
18173;DHT22;9211;48.818;9.312;2022-10-17T08:33:29;14.70;99.90
18173;DHT22;9211;48.818;9.312;2022-10-17T08:35:57;14.70;99.90
18173;DHT22;9211;48.818;9.312;2022-10-17T08:38:25;14.80;99.90
18173;DHT22;9211;48.818;9.312;2022-10-17T08:40:52;14.80;99.90
18173;DHT22;9211;48.818;9.312;2022-10-17T08:43:41;14.80;99.90
18173;DHT22;9211;48.818;9.312;2022-10-17T08:46:10;14.90;99.90
18173;DHT22;9211;48.818;9.312;2022-10-17T08:48:39;15.00;99.90
18173;DHT22;9211;48.818;9.312;2022-10-17T08:51:12;15.00;99.90
18173;DHT22;9211;48.818;9.312;2022-10-17T08:53:45;15.00;99.90
18173;DHT22;9211;48.818;9.312;2022-10-17T08:56:18;15.10;99.90
18173;DHT22;9211;48.818;9.312;2022-10-17T08:58:46;15.20;99.90
18173;DHT22;9211;48.818;9.312;2022-10-17T09:01:28;15.30;99.90
18173;DHT22;9211;48.818;9.312;2022-10-17T09:04:10;15.40;99.90
18173;DHT22;9211;48.818;9.312;2022-10-17T09:06:47;15.50;99.90
18173;DHT22;9211;48.818;9.312;2022-10-17T09:09:24;15.60;99.90
18173;DHT22;9211;48.818;9.312;2022-10-17T09:12:02;15.70;99.90
18173;DHT22;9211;48.818;9.312;2022-10-17T09:14:51;15.70;99.90
18173;DHT22;9211;48.818;9.312;2022-10-17T09:17:28;15.80;99.90
18173;DHT22;9211;48.818;9.312;2022-10-17T09:20:03;16.00;99.90
18173;DHT22;9211;48.818;9.312;2022-10-17T09:22:35;16.10;99.90
18173;DHT22;9211;48.818;9.312;2022-10-17T09:25:08;16.20;99.90
18173;DHT22;9211;48.818;9.312;2022-10-17T09:27:40;16.20;99.90
18173;DHT22;9211;48.818;9.312;2022-10-17T09:30:22;16.50;99.90
18173;DHT22;9211;48.818;9.312;2022-10-17T09:32:51;16.60;99.90
18173;DHT22;9211;48.818;9.312;2022-10-17T09:35:19;16.70;99.90
18173;DHT22;9211;48.818;9.312;2022-10-17T09:37:48;16.70;99.90
18173;DHT22;9211;48.818;9.312;2022-10-17T09:40:18;16.70;99.90
18173;DHT22;9211;48.818;9.312;2022-10-17T09:42:48;16.80;99.90
18173;DHT22;9211;48.818;9.312;2022-10-17T09:45:19;16.90;99.90
18173;DHT22;9211;48.818;9.312;2022-10-17T09:47:56;17.00;99.90
18173;DHT22;9211;48.818;9.312;2022-10-17T09:50:28;17.10;99.90
18173;DHT22;9211;48.818;9.312;2022-10-17T09:52:58;17.10;99.90
18173;DHT22;9211;48.818;9.312;2022-10-17T09:55:32;17.10;99.90
18173;DHT22;9211;48.818;9.312;2022-10-17T09:58:05;17.10;99.90
18173;DHT22;9211;48.818;9.312;2022-10-17T10:00:35;17.20;99.90
18173;DHT22;9211;48.818;9.312;2022-10-17T10:03:13;17.20;99.90
18173;DHT22;9211;48.818;9.312;2022-10-17T10:05:40;17.30;99.90
18173;DHT22;9211;48.818;9.312;2022-10-17T10:08:13;17.40;99.90
18173;DHT22;9211;48.818;9.312;2022-10-17T10:10:40;17.40;99.90
18173;DHT22;9211;48.818;9.312;2022-10-17T10:13:17;17.50;99.90
18173;DHT22;9211;48.818;9.312;2022-10-17T10:15:49;17.60;99.90
18173;DHT22;9211;48.818;9.312;2022-10-17T10:18:37;17.50;99.90
18173;DHT22;9211;48.818;9.312;2022-10-17T10:21:07;17.70;99.90
18173;DHT22;9211;48.818;9.312;2022-10-17T10:23:35;17.70;99.90
18173;DHT22;9211;48.818;9.312;2022-10-17T10:26:19;17.80;99.90
18173;DHT22;9211;48.818;9.312;2022-10-17T10:28:56;17.90;99.90
18173;DHT22;9211;48.818;9.312;2022-10-17T10:31:31;17.90;99.90
18173;DHT22;9211;48.818;9.312;2022-10-17T10:34:19;18.00;99.90
18173;DHT22;9211;48.818;9.312;2022-10-17T10:37:00;18.20;99.90
18173;DHT22;9211;48.818;9.312;2022-10-17T10:39:35;18.30;99.90
18173;DHT22;9211;48.818;9.312;2022-10-17T10:42:06;18.40;99.90
18173;DHT22;9211;48.818;9.312;2022-10-17T10:44:37;18.60;99.90
18173;DHT22;9211;48.818;9.312;2022-10-17T10:47:20;18.60;99.90
18173;DHT22;9211;48.818;9.312;2022-10-17T10:49:50;18.70;99.90
18173;DHT22;9211;48.818;9.312;2022-10-17T10:52:28;18.80;99.90
18173;DHT22;9211;48.818;9.312;2022-10-17T10:55:05;19.00;99.90
18173;DHT22;9211;48.818;9.312;2022-10-17T10:57:43;19.10;99.90
18173;DHT22;9211;48.818;9.312;2022-10-17T11:00:14;19.20;99.90
18173;DHT22;9211;48.818;9.312;2022-10-17T11:02:48;19.30;99.90
18173;DHT22;9211;48.818;9.312;2022-10-17T11:05:23;19.30;99.90
18173;DHT22;9211;48.818;9.312;2022-10-17T11:07:55;19.40;99.90
18173;DHT22;9211;48.818;9.312;2022-10-17T11:10:29;19.50;99.90
18173;DHT22;9211;48.818;9.312;2022-10-17T11:13:02;19.50;99.90
18173;DHT22;9211;48.818;9.312;2022-10-17T11:15:34;19.60;99.90
18173;DHT22;9211;48.818;9.312;2022-10-17T11:18:05;19.70;99.90
18173;DHT22;9211;48.818;9.312;2022-10-17T11:20:37;19.80;99.90
18173;DHT22;9211;48.818;9.312;2022-10-17T11:23:15;19.90;99.90
18173;DHT22;9211;48.818;9.312;2022-10-17T11:25:47;20.00;99.90
18173;DHT22;9211;48.818;9.312;2022-10-17T11:28:16;20.10;99.90
18173;DHT22;9211;48.818;9.312;2022-10-17T11:30:47;20.30;99.90
18173;DHT22;9211;48.818;9.312;2022-10-17T11:33:24;20.50;99.90
18173;DHT22;9211;48.818;9.312;2022-10-17T11:35:53;20.60;99.90
18173;DHT22;9211;48.818;9.312;2022-10-17T11:38:26;20.80;99.90
18173;DHT22;9211;48.818;9.312;2022-10-17T11:40:57;20.90;99.90
18173;DHT22;9211;48.818;9.312;2022-10-17T11:43:29;21.10;99.90
18173;DHT22;9211;48.818;9.312;2022-10-17T11:46:00;21.20;99.90
18173;DHT22;9211;48.818;9.312;2022-10-17T11:48:34;21.40;99.90
18173;DHT22;9211;48.818;9.312;2022-10-17T11:51:08;21.40;99.90
18173;DHT22;9211;48.818;9.312;2022-10-17T11:53:45;21.50;99.90
18173;DHT22;9211;48.818;9.312;2022-10-17T11:56:18;21.60;99.90
18173;DHT22;9211;48.818;9.312;2022-10-17T11:58:51;21.60;99.90
18173;DHT22;9211;48.818;9.312;2022-10-17T12:01:26;21.60;99.90
18173;DHT22;9211;48.818;9.312;2022-10-17T12:04:10;21.70;99.90
18173;DHT22;9211;48.818;9.312;2022-10-17T12:06:52;21.70;99.90
18173;DHT22;9211;48.818;9.312;2022-10-17T12:09:31;21.70;99.90
18173;DHT22;9211;48.818;9.312;2022-10-17T12:12:02;21.80;99.90
18173;DHT22;9211;48.818;9.312;2022-10-17T12:14:40;21.70;99.90
18173;DHT22;9211;48.818;9.312;2022-10-17T12:17:28;21.80;99.90
18173;DHT22;9211;48.818;9.312;2022-10-17T12:20:17;21.70;99.90
18173;DHT22;9211;48.818;9.312;2022-10-17T12:22:51;21.70;99.90
18173;DHT22;9211;48.818;9.312;2022-10-17T12:25:20;21.70;99.90
18173;DHT22;9211;48.818;9.312;2022-10-17T12:27:49;21.70;99.90
18173;DHT22;9211;48.818;9.312;2022-10-17T12:30:21;21.70;99.90
18173;DHT22;9211;48.818;9.312;2022-10-17T12:32:58;21.70;99.90
18173;DHT22;9211;48.818;9.312;2022-10-17T12:35:30;21.70;99.90
18173;DHT22;9211;48.818;9.312;2022-10-17T12:38:19;21.70;99.90
18173;DHT22;9211;48.818;9.312;2022-10-17T12:40:57;21.80;99.90
18173;DHT22;9211;48.818;9.312;2022-10-17T12:43:49;21.80;99.90
18173;DHT22;9211;48.818;9.312;2022-10-17T12:46:42;21.80;99.90
18173;DHT22;9211;48.818;9.312;2022-10-17T12:55:29;22.00;99.90
18173;DHT22;9211;48.818;9.312;2022-10-17T12:57:57;22.00;99.90
18173;DHT22;9211;48.818;9.312;2022-10-17T13:00:32;22.00;99.90
18173;DHT22;9211;48.818;9.312;2022-10-17T13:03:12;22.00;99.90
18173;DHT22;9211;48.818;9.312;2022-10-17T13:05:42;22.10;99.90
18173;DHT22;9211;48.818;9.312;2022-10-17T13:08:16;22.10;99.90
18173;DHT22;9211;48.818;9.312;2022-10-17T13:10:48;22.20;99.90
18173;DHT22;9211;48.818;9.312;2022-10-17T13:13:19;22.30;99.90
18173;DHT22;9211;48.818;9.312;2022-10-17T13:15:46;22.30;99.90
18173;DHT22;9211;48.818;9.312;2022-10-17T13:18:18;22.40;99.90
18173;DHT22;9211;48.818;9.312;2022-10-17T13:20:54;22.50;99.90
18173;DHT22;9211;48.818;9.312;2022-10-17T13:23:22;22.70;99.90
18173;DHT22;9211;48.818;9.312;2022-10-17T13:26:06;22.90;99.90
18173;DHT22;9211;48.818;9.312;2022-10-17T13:28:34;23.10;99.90
18173;DHT22;9211;48.818;9.312;2022-10-17T13:31:01;23.20;99.90
18173;DHT22;9211;48.818;9.312;2022-10-17T13:33:32;23.30;99.90
18173;DHT22;9211;48.818;9.312;2022-10-17T13:36:01;23.30;99.90
18173;DHT22;9211;48.818;9.312;2022-10-17T13:38:31;23.40;99.90
18173;DHT22;9211;48.818;9.312;2022-10-17T13:40:59;23.50;99.90
18173;DHT22;9211;48.818;9.312;2022-10-17T13:43:29;23.50;99.90
18173;DHT22;9211;48.818;9.312;2022-10-17T13:46:00;23.60;99.90
18173;DHT22;9211;48.818;9.312;2022-10-17T13:48:31;23.60;99.90
18173;DHT22;9211;48.818;9.312;2022-10-17T13:51:02;23.70;99.90
18173;DHT22;9211;48.818;9.312;2022-10-17T13:53:30;23.60;99.90
18173;DHT22;9211;48.818;9.312;2022-10-17T13:56:00;23.60;99.90
18173;DHT22;9211;48.818;9.312;2022-10-17T13:58:31;23.60;99.90
18173;DHT22;9211;48.818;9.312;2022-10-17T14:01:00;23.60;99.90
18173;DHT22;9211;48.818;9.312;2022-10-17T14:03:27;23.60;99.90
18173;DHT22;9211;48.818;9.312;2022-10-17T14:06:03;23.50;99.90
18173;DHT22;9211;48.818;9.312;2022-10-17T14:08:31;23.40;99.90
18173;DHT22;9211;48.818;9.312;2022-10-17T14:10:59;23.40;99.90
18173;DHT22;9211;48.818;9.312;2022-10-17T14:13:28;23.40;99.90
18173;DHT22;9211;48.818;9.312;2022-10-17T14:16:01;23.40;99.90
18173;DHT22;9211;48.818;9.312;2022-10-17T14:18:30;23.30;99.90
18173;DHT22;9211;48.818;9.312;2022-10-17T14:20:58;23.30;99.90
18173;DHT22;9211;48.818;9.312;2022-10-17T14:23:36;23.20;99.90
18173;DHT22;9211;48.818;9.312;2022-10-17T14:26:10;23.20;99.90
18173;DHT22;9211;48.818;9.312;2022-10-17T14:28:38;23.20;99.90
18173;DHT22;9211;48.818;9.312;2022-10-17T14:31:22;23.10;99.90
18173;DHT22;9211;48.818;9.312;2022-10-17T14:33:51;23.00;99.90
18173;DHT22;9211;48.818;9.312;2022-10-17T14:36:19;23.00;99.90
18173;DHT22;9211;48.818;9.312;2022-10-17T14:38:49;23.00;99.90
18173;DHT22;9211;48.818;9.312;2022-10-17T14:41:21;23.00;99.90
18173;DHT22;9211;48.818;9.312;2022-10-17T14:43:53;22.90;99.90
18173;DHT22;9211;48.818;9.312;2022-10-17T14:46:22;22.90;99.90
18173;DHT22;9211;48.818;9.312;2022-10-17T14:49:03;22.90;99.90
18173;DHT22;9211;48.818;9.312;2022-10-17T14:51:30;22.80;99.90
18173;DHT22;9211;48.818;9.312;2022-10-17T14:54:03;22.80;99.90
18173;DHT22;9211;48.818;9.312;2022-10-17T14:56:38;22.80;99.90
18173;DHT22;9211;48.818;9.312;2022-10-17T14:59:07;22.60;99.90
18173;DHT22;9211;48.818;9.312;2022-10-17T15:01:36;22.70;99.90
18173;DHT22;9211;48.818;9.312;2022-10-17T15:04:03;22.70;99.90
18173;DHT22;9211;48.818;9.312;2022-10-17T15:06:32;22.60;99.90
18173;DHT22;9211;48.818;9.312;2022-10-17T15:08:59;22.60;99.90
18173;DHT22;9211;48.818;9.312;2022-10-17T15:11:27;22.60;99.90
18173;DHT22;9211;48.818;9.312;2022-10-17T15:13:54;22.60;99.90
18173;DHT22;9211;48.818;9.312;2022-10-17T15:16:22;22.40;99.90
18173;DHT22;9211;48.818;9.312;2022-10-17T15:18:51;22.40;99.90
18173;DHT22;9211;48.818;9.312;2022-10-17T15:21:20;22.30;99.90
18173;DHT22;9211;48.818;9.312;2022-10-17T15:23:47;22.20;99.90
18173;DHT22;9211;48.818;9.312;2022-10-17T15:26:17;22.10;99.90
18173;DHT22;9211;48.818;9.312;2022-10-17T15:28:45;22.00;99.90
18173;DHT22;9211;48.818;9.312;2022-10-17T15:31:14;21.90;99.90
18173;DHT22;9211;48.818;9.312;2022-10-17T15:33:42;21.80;99.90
18173;DHT22;9211;48.818;9.312;2022-10-17T15:36:22;21.80;99.90
18173;DHT22;9211;48.818;9.312;2022-10-17T15:38:50;21.80;99.90
18173;DHT22;9211;48.818;9.312;2022-10-17T15:41:18;21.70;99.90
18173;DHT22;9211;48.818;9.312;2022-10-17T15:43:46;21.60;99.90
18173;DHT22;9211;48.818;9.312;2022-10-17T15:46:16;21.50;99.90
18173;DHT22;9211;48.818;9.312;2022-10-17T15:48:44;21.40;99.90
18173;DHT22;9211;48.818;9.312;2022-10-17T15:51:11;21.30;99.90
18173;DHT22;9211;48.818;9.312;2022-10-17T15:53:39;21.20;99.90
18173;DHT22;9211;48.818;9.312;2022-10-17T15:56:07;21.10;99.90
18173;DHT22;9211;48.818;9.312;2022-10-17T15:58:41;21.00;99.90
18173;DHT22;9211;48.818;9.312;2022-10-17T16:01:18;21.00;99.90
18173;DHT22;9211;48.818;9.312;2022-10-17T16:03:45;20.90;99.90
18173;DHT22;9211;48.818;9.312;2022-10-17T16:06:15;20.80;99.90
18173;DHT22;9211;48.818;9.312;2022-10-17T16:08:43;20.80;99.90
18173;DHT22;9211;48.818;9.312;2022-10-17T16:11:16;20.70;99.90
18173;DHT22;9211;48.818;9.312;2022-10-17T16:13:48;20.60;99.90
18173;DHT22;9211;48.818;9.312;2022-10-17T16:16:16;20.60;99.90
18173;DHT22;9211;48.818;9.312;2022-10-17T16:18:46;20.50;99.90
18173;DHT22;9211;48.818;9.312;2022-10-17T16:21:14;20.40;99.90
18173;DHT22;9211;48.818;9.312;2022-10-17T16:23:44;20.30;99.90
18173;DHT22;9211;48.818;9.312;2022-10-17T16:26:12;20.30;99.90
18173;DHT22;9211;48.818;9.312;2022-10-17T16:28:41;20.20;99.90